Time;durP1;ratioP1;P1;durP2;ratioP2;P2;SDS_P1;SDS_P2;PMS_P1;PMS_P2;Temp;Humidity;BMP_temperature;BMP_pressure;BME280_temperature;BME280_humidity;BME280_pressure;Samples;Min_cycle;Max_cycle;Signal;HPM_P1;HPM_P2
2022/03/14 00:01:54;;;;;;;0.70;0.50;;;11.80;99.90;;;;;;5031344;28;20160;-72
2022/03/14 00:04:20;;;;;;;1.20;1.03;;;11.80;99.90;;;;;;5035122;28;20180;-72
2022/03/14 00:06:48;;;;;;;1.00;0.63;;;11.80;99.90;;;;;;5035058;28;20282;-71
2022/03/14 00:09:14;;;;;;;0.70;0.50;;;11.80;99.90;;;;;;5034516;28;20172;-72
2022/03/14 00:11:39;;;;;;;0.80;0.60;;;11.70;99.90;;;;;;5035183;28;20476;-71
2022/03/14 00:14:07;;;;;;;1.10;1.00;;;11.70;99.90;;;;;;5035152;28;20187;-71
2022/03/14 00:16:36;;;;;;;0.70;0.50;;;11.70;99.90;;;;;;5035036;28;20536;-71
2022/03/14 00:19:03;;;;;;;0.70;0.60;;;11.70;99.90;;;;;;5034652;28;20414;-71
2022/03/14 00:21:30;;;;;;;0.80;0.70;;;11.70;99.90;;;;;;5034798;28;20422;-71
2022/03/14 00:23:57;;;;;;;0.70;0.60;;;11.70;99.90;;;;;;5034943;28;20422;-72
2022/03/14 00:26:24;;;;;;;0.77;0.70;;;11.70;99.90;;;;;;5034897;28;20458;-72
2022/03/14 00:28:50;;;;;;;1.80;1.17;;;11.60;99.90;;;;;;5034584;28;20435;-72
2022/03/14 00:31:16;;;;;;;0.70;0.50;;;11.60;99.90;;;;;;5034676;28;20418;-72
2022/03/14 00:33:42;;;;;;;0.70;0.50;;;11.60;99.90;;;;;;5034586;28;20930;-71
2022/03/14 00:36:08;;;;;;;0.80;0.60;;;11.60;99.90;;;;;;5034442;28;20175;-71
2022/03/14 00:38:38;;;;;;;1.00;0.90;;;11.60;99.90;;;;;;5034683;28;20167;-72
2022/03/14 00:41:05;;;;;;;1.10;1.00;;;11.60;99.90;;;;;;5034257;28;20450;-72
2022/03/14 00:43:34;;;;;;;0.77;0.67;;;11.60;99.90;;;;;;5032986;28;20442;-72
2022/03/14 00:45:59;;;;;;;0.70;0.50;;;11.60;99.90;;;;;;5034604;28;20464;-71
2022/03/14 00:48:25;;;;;;;0.80;0.60;;;11.60;99.90;;;;;;5034667;28;20762;-72
2022/03/14 00:50:52;;;;;;;0.70;0.60;;;11.50;99.90;;;;;;5034098;28;20179;-71
2022/03/14 00:53:18;;;;;;;0.70;0.50;;;11.50;99.90;;;;;;5034407;28;20849;-71
2022/03/14 00:55:43;;;;;;;0.90;0.70;;;11.50;99.90;;;;;;5034198;28;20465;-71
2022/03/14 00:58:09;;;;;;;1.63;1.47;;;11.50;99.90;;;;;;5034443;28;20179;-71
2022/03/14 01:00:35;;;;;;;0.70;0.50;;;11.50;99.90;;;;;;5034107;28;20205;-71
2022/03/14 01:03:01;;;;;;;1.13;0.70;;;11.50;99.90;;;;;;5034192;28;20270;-72
2022/03/14 01:05:27;;;;;;;0.80;0.80;;;11.50;99.90;;;;;;5034268;28;20449;-72
2022/03/14 01:07:52;;;;;;;0.70;0.50;;;11.50;99.90;;;;;;5034047;28;20195;-72
2022/03/14 01:10:18;;;;;;;0.70;0.50;;;11.50;99.90;;;;;;5033872;28;20429;-72
2022/03/14 01:12:44;;;;;;;1.00;0.70;;;11.50;99.90;;;;;;5033946;28;20506;-71
2022/03/14 01:15:10;;;;;;;0.70;0.50;;;11.50;99.90;;;;;;5033944;28;20167;-71
2022/03/14 01:17:36;;;;;;;0.90;0.60;;;11.50;99.90;;;;;;5034149;28;20174;-71
2022/03/14 01:20:03;;;;;;;0.80;0.60;;;11.50;99.90;;;;;;5033405;28;20414;-72
2022/03/14 01:22:29;;;;;;;0.70;0.50;;;11.50;99.90;;;;;;5033901;28;20412;-72
2022/03/14 01:24:54;;;;;;;0.70;0.50;;;11.50;99.90;;;;;;5033831;28;20454;-72
2022/03/14 01:27:20;;;;;;;0.70;0.50;;;11.50;99.90;;;;;;5033765;28;20530;-71
2022/03/14 01:29:45;;;;;;;0.70;0.60;;;11.50;99.90;;;;;;5033244;28;20175;-71
2022/03/14 01:32:11;;;;;;;2.00;0.60;;;11.40;99.90;;;;;;5033735;28;20657;-71
2022/03/14 01:34:36;;;;;;;0.80;0.60;;;11.40;99.90;;;;;;5033748;28;20190;-72
2022/03/14 01:37:03;;;;;;;0.80;0.60;;;11.40;99.90;;;;;;5033955;28;20642;-72
2022/03/14 01:39:28;;;;;;;0.70;0.50;;;11.30;99.90;;;;;;5033135;28;20229;-72
2022/03/14 01:41:55;;;;;;;0.70;0.57;;;11.30;99.90;;;;;;5033638;28;20397;-72
2022/03/14 01:44:21;;;;;;;0.90;0.67;;;11.30;99.90;;;;;;5033351;28;20591;-71
2022/03/14 01:46:47;;;;;;;0.97;0.73;;;11.20;99.90;;;;;;5033338;28;20491;-71
2022/03/14 01:49:14;;;;;;;0.70;0.50;;;11.20;99.90;;;;;;5032766;28;20486;-72
2022/03/14 01:51:40;;;;;;;1.53;1.43;;;11.20;99.90;;;;;;5033366;28;20409;-72
2022/03/14 01:54:07;;;;;;;1.47;0.80;;;11.10;99.90;;;;;;5032847;28;20430;-71
2022/03/14 01:56:35;;;;;;;0.70;0.60;;;11.10;99.90;;;;;;5033343;28;20997;-71
2022/03/14 01:59:01;;;;;;;1.43;1.33;;;11.10;99.90;;;;;;5032820;28;20763;-72
2022/03/14 02:01:27;;;;;;;1.00;0.70;;;11.00;99.90;;;;;;5032996;28;20998;-71
2022/03/14 02:03:53;;;;;;;1.13;0.50;;;11.00;99.90;;;;;;5032994;28;20793;-72
2022/03/14 02:06:18;;;;;;;0.97;0.87;;;10.90;99.90;;;;;;5032893;28;20452;-72
2022/03/14 02:08:44;;;;;;;0.87;0.80;;;10.90;99.90;;;;;;5033105;28;20598;-71
2022/03/14 02:11:10;;;;;;;0.90;0.70;;;10.90;99.90;;;;;;5032574;28;20174;-74
2022/03/14 02:13:35;;;;;;;1.23;1.13;;;10.90;99.90;;;;;;5033004;28;20230;-71
2022/03/14 02:16:01;;;;;;;0.70;0.50;;;10.90;99.90;;;;;;5032908;28;20203;-72
2022/03/14 02:18:27;;;;;;;0.70;0.50;;;10.80;99.90;;;;;;5033348;28;20177;-71
2022/03/14 02:20:53;;;;;;;0.90;0.77;;;10.80;99.90;;;;;;5032703;28;20174;-72
2022/03/14 02:23:19;;;;;;;0.80;0.80;;;10.80;99.90;;;;;;5032590;28;20199;-71
2022/03/14 02:25:52;;;;;;;0.80;0.60;;;10.80;99.90;;;;;;5032418;28;20457;-71
2022/03/14 02:28:19;;;;;;;0.80;0.80;;;10.70;99.90;;;;;;5031620;28;20480;-72
2022/03/14 02:30:45;;;;;;;1.63;1.53;;;10.70;99.90;;;;;;5031586;28;20501;-72
2022/03/14 02:33:11;;;;;;;0.80;0.60;;;10.70;99.90;;;;;;5032797;28;20521;-72
2022/03/14 02:35:39;;;;;;;0.80;0.80;;;10.60;99.90;;;;;;5032485;28;20236;-72
2022/03/14 02:38:12;;;;;;;2.93;1.00;;;10.60;99.90;;;;;;5032655;28;20442;-71
2022/03/14 02:40:39;;;;;;;0.80;0.70;;;10.60;99.90;;;;;;5032610;28;20406;-72
2022/03/14 02:43:05;;;;;;;0.70;0.50;;;10.50;99.90;;;;;;5032404;28;20434;-72
2022/03/14 02:45:30;;;;;;;0.77;0.57;;;10.50;99.90;;;;;;5032417;28;20457;-72
2022/03/14 02:47:56;;;;;;;0.80;0.70;;;10.40;99.90;;;;;;5030959;28;20410;-72
2022/03/14 02:50:21;;;;;;;1.00;0.90;;;10.40;99.90;;;;;;5031950;28;20183;-71
2022/03/14 02:52:47;;;;;;;0.70;0.53;;;10.40;99.90;;;;;;5032307;28;20176;-72
2022/03/14 02:55:14;;;;;;;0.70;0.60;;;10.30;99.90;;;;;;5032607;28;20668;-72
2022/03/14 02:57:40;;;;;;;0.70;0.60;;;10.30;99.90;;;;;;5031084;28;20182;-71
2022/03/14 03:00:07;;;;;;;3.43;1.17;;;10.30;99.90;;;;;;5031367;28;20694;-72
2022/03/14 03:02:35;;;;;;;0.97;0.87;;;10.30;99.90;;;;;;5032466;28;20194;-72
2022/03/14 03:05:05;;;;;;;0.70;0.60;;;10.20;99.90;;;;;;5031647;28;20457;-71
2022/03/14 03:07:32;;;;;;;1.23;1.13;;;10.20;99.90;;;;;;5031832;28;20402;-71
2022/03/14 03:09:57;;;;;;;0.80;0.50;;;10.20;99.90;;;;;;5031605;28;20406;-71
2022/03/14 03:12:25;;;;;;;1.27;1.17;;;10.20;99.90;;;;;;5031564;28;20418;-71
2022/03/14 03:14:51;;;;;;;2.80;0.80;;;10.20;99.90;;;;;;5031667;28;20187;-71
2022/03/14 03:17:18;;;;;;;0.73;0.60;;;10.20;99.90;;;;;;5032174;28;20472;-72
2022/03/14 03:19:43;;;;;;;0.70;0.50;;;10.20;99.90;;;;;;5031684;28;20404;-71
2022/03/14 03:22:09;;;;;;;0.70;0.50;;;10.20;99.90;;;;;;5031694;28;20403;-71
2022/03/14 03:24:34;;;;;;;0.80;0.70;;;10.20;99.90;;;;;;5031589;28;20556;-71
2022/03/14 03:27:00;;;;;;;0.70;0.50;;;10.20;99.90;;;;;;5031641;28;20610;-71
2022/03/14 03:29:25;;;;;;;0.80;0.57;;;10.20;99.90;;;;;;5031420;28;20207;-71
2022/03/14 03:31:51;;;;;;;1.10;0.70;;;10.20;99.90;;;;;;5031600;28;20167;-72
2022/03/14 03:34:17;;;;;;;0.80;0.60;;;10.20;99.90;;;;;;5031427;28;20191;-71
2022/03/14 03:36:42;;;;;;;0.70;0.50;;;10.20;99.90;;;;;;5030365;28;20421;-71
2022/03/14 03:39:08;;;;;;;0.70;0.50;;;10.20;99.90;;;;;;5034957;28;20241;-71
2022/03/14 03:41:33;;;;;;;0.80;0.63;;;10.20;99.90;;;;;;5035260;28;20167;-72
2022/03/14 03:43:59;;;;;;;0.70;0.50;;;10.20;99.90;;;;;;5035285;28;20222;-71
2022/03/14 03:46:25;;;;;;;0.70;0.50;;;10.20;99.90;;;;;;5035219;28;20214;-72
2022/03/14 03:48:50;;;;;;;0.70;0.50;;;10.20;99.90;;;;;;5034943;28;20184;-71
2022/03/14 03:51:16;;;;;;;0.83;0.83;;;10.20;99.90;;;;;;5035009;28;20172;-71
2022/03/14 03:53:41;;;;;;;1.43;1.10;;;10.20;99.90;;;;;;5035093;28;20184;-71
2022/03/14 03:56:07;;;;;;;0.80;0.70;;;10.20;99.90;;;;;;5035312;28;20183;-72
2022/03/14 03:58:32;;;;;;;0.80;0.70;;;10.20;99.90;;;;;;5035972;28;20167;-72
2022/03/14 04:00:58;;;;;;;0.70;0.50;;;10.20;99.90;;;;;;5035537;28;20550;-72
2022/03/14 04:03:23;;;;;;;0.70;0.50;;;10.20;99.90;;;;;;5035236;28;20656;-71
2022/03/14 04:05:49;;;;;;;0.73;0.63;;;10.20;99.90;;;;;;5033636;28;20276;-71
2022/03/14 04:08:15;;;;;;;0.70;0.50;;;10.20;99.90;;;;;;5034847;28;20168;-72
2022/03/14 04:10:43;;;;;;;0.70;0.60;;;10.20;99.90;;;;;;5034593;28;20410;-71
2022/03/14 04:13:09;;;;;;;0.70;0.50;;;10.20;99.90;;;;;;5034774;28;20198;-71
2022/03/14 04:15:50;;;;;;;1.33;1.23;;;10.20;99.90;;;;;;5035747;28;20406;-72
2022/03/14 04:18:18;;;;;;;0.77;0.67;;;10.20;99.90;;;;;;5033551;28;20417;-71
2022/03/14 04:20:43;;;;;;;0.73;0.60;;;10.20;99.90;;;;;;5034483;28;20410;-72
2022/03/14 04:23:09;;;;;;;1.03;0.93;;;10.20;99.90;;;;;;5034242;28;20477;-71
2022/03/14 04:25:35;;;;;;;1.90;1.30;;;10.20;99.90;;;;;;5034609;28;20194;-72
2022/03/14 04:28:00;;;;;;;2.20;0.70;;;10.20;99.90;;;;;;5034760;28;20594;-72
2022/03/14 04:30:26;;;;;;;0.70;0.50;;;10.20;99.90;;;;;;5034888;28;20172;-72
2022/03/14 04:32:52;;;;;;;0.70;0.50;;;10.20;99.90;;;;;;5035253;28;20167;-72
2022/03/14 04:35:17;;;;;;;1.50;0.70;;;10.20;99.90;;;;;;5034887;28;20247;-72
2022/03/14 04:37:43;;;;;;;0.80;0.80;;;10.20;99.90;;;;;;5034728;28;20924;-72
2022/03/14 04:40:09;;;;;;;1.53;0.70;;;10.20;99.90;;;;;;5034010;28;20170;-72
2022/03/14 04:42:35;;;;;;;1.67;1.07;;;10.10;99.90;;;;;;5034254;28;20254;-71
2022/03/14 04:45:00;;;;;;;0.80;0.60;;;10.10;99.90;;;;;;5034069;28;20537;-72
2022/03/14 04:47:26;;;;;;;0.70;0.50;;;10.10;99.90;;;;;;5034533;28;20182;-71
2022/03/14 04:49:52;;;;;;;0.87;0.80;;;10.10;99.90;;;;;;5034348;28;20167;-71
2022/03/14 04:52:18;;;;;;;0.80;0.70;;;10.10;99.90;;;;;;5035008;28;20166;-73
2022/03/14 04:54:44;;;;;;;1.10;1.00;;;10.10;99.90;;;;;;5034337;28;20968;-72
2022/03/14 04:57:10;;;;;;;1.00;1.00;;;10.10;99.90;;;;;;5033184;28;20539;-71
2022/03/14 04:59:35;;;;;;;0.70;0.50;;;10.10;99.90;;;;;;5033662;28;20412;-74
2022/03/14 05:02:01;;;;;;;0.70;0.57;;;10.00;99.90;;;;;;5034890;28;20574;-71
2022/03/14 05:04:26;;;;;;;1.20;0.60;;;10.00;99.90;;;;;;5034757;28;20795;-71
2022/03/14 05:06:52;;;;;;;2.20;1.00;;;10.00;99.90;;;;;;5033808;28;20207;-71
2022/03/14 05:09:17;;;;;;;0.70;0.50;;;10.00;99.90;;;;;;5033771;28;20172;-72
2022/03/14 05:11:44;;;;;;;0.70;0.50;;;9.90;99.90;;;;;;5033598;28;20170;-73
2022/03/14 05:14:09;;;;;;;1.07;0.97;;;10.00;99.90;;;;;;5033618;28;20215;-73
2022/03/14 05:16:35;;;;;;;0.70;0.50;;;9.90;99.90;;;;;;5033659;28;20438;-72
2022/03/14 05:19:01;;;;;;;0.80;0.60;;;9.90;99.90;;;;;;5033662;28;20179;-71
2022/03/14 05:21:26;;;;;;;0.80;0.80;;;9.90;99.90;;;;;;5033442;28;20421;-71
2022/03/14 05:23:52;;;;;;;0.70;0.50;;;9.90;99.90;;;;;;5033274;28;20640;-72
2022/03/14 05:26:18;;;;;;;0.70;0.50;;;9.90;99.90;;;;;;5033554;28;20193;-72
2022/03/14 05:28:43;;;;;;;0.80;0.70;;;9.90;99.90;;;;;;5033577;28;20416;-72
2022/03/14 05:31:09;;;;;;;0.70;0.50;;;9.80;99.90;;;;;;5033049;28;20174;-72
2022/03/14 05:33:34;;;;;;;0.70;0.50;;;9.80;99.90;;;;;;5033343;28;20271;-72
2022/03/14 05:36:01;;;;;;;0.70;0.50;;;9.80;99.90;;;;;;5033380;28;20206;-72
2022/03/14 05:38:28;;;;;;;1.77;0.97;;;9.80;99.90;;;;;;5033328;28;20198;-72
2022/03/14 05:40:54;;;;;;;0.70;0.50;;;9.80;99.90;;;;;;5032973;28;20436;-72
2022/03/14 05:43:20;;;;;;;1.37;0.70;;;9.80;99.90;;;;;;5033766;28;20913;-72
2022/03/14 05:45:47;;;;;;;0.70;0.60;;;9.80;99.90;;;;;;5033971;28;20729;-72
2022/03/14 05:48:12;;;;;;;0.70;0.60;;;9.80;99.90;;;;;;5034101;28;20457;-72
2022/03/14 05:50:38;;;;;;;0.70;0.50;;;9.70;99.90;;;;;;5032768;28;20721;-72
2022/03/14 05:53:03;;;;;;;0.70;0.50;;;9.70;99.90;;;;;;5032912;28;20188;-72
2022/03/14 05:55:29;;;;;;;0.70;0.50;;;9.70;99.90;;;;;;5032824;28;20184;-71
2022/03/14 05:57:55;;;;;;;0.70;0.50;;;9.70;99.90;;;;;;5032836;28;20179;-71
2022/03/14 06:00:24;;;;;;;3.63;1.93;;;9.70;99.90;;;;;;5031648;28;20557;-71
2022/03/14 06:02:51;;;;;;;0.70;0.50;;;9.70;99.90;;;;;;5032838;28;20409;-72
2022/03/14 06:05:22;;;;;;;0.83;0.60;;;9.70;99.90;;;;;;5032771;28;20445;-72
2022/03/14 06:07:47;;;;;;;1.43;1.33;;;9.70;99.90;;;;;;5032984;28;20425;-71
2022/03/14 06:10:16;;;;;;;0.70;0.50;;;9.70;99.90;;;;;;5032938;28;20413;-72
2022/03/14 06:12:42;;;;;;;1.10;0.60;;;9.70;99.90;;;;;;5033847;28;20633;-72
2022/03/14 06:15:12;;;;;;;0.70;0.60;;;9.70;99.90;;;;;;5032211;28;20500;-72
2022/03/14 06:17:41;;;;;;;0.70;0.50;;;9.70;99.90;;;;;;5033321;28;20452;-72
2022/03/14 06:20:08;;;;;;;0.80;0.60;;;9.70;99.90;;;;;;5032290;28;20410;-72
2022/03/14 06:22:38;;;;;;;0.70;0.50;;;9.70;99.90;;;;;;5031521;28;20788;-72
2022/03/14 06:25:04;;;;;;;0.70;0.50;;;9.70;99.90;;;;;;5013021;28;20451;-72
2022/03/14 06:27:30;;;;;;;0.70;0.50;;;9.70;99.90;;;;;;5012669;28;20913;-72
2022/03/14 06:29:56;;;;;;;0.80;0.60;;;9.70;99.90;;;;;;5013089;28;20430;-72
2022/03/14 06:32:21;;;;;;;0.70;0.50;;;9.70;99.90;;;;;;5012629;28;20170;-71
2022/03/14 06:34:47;;;;;;;3.97;0.67;;;9.70;99.90;;;;;;5015463;28;20442;-71
2022/03/14 06:37:13;;;;;;;0.70;0.50;;;9.70;99.90;;;;;;5032291;28;20167;-72
2022/03/14 06:39:39;;;;;;;0.70;0.50;;;9.70;99.90;;;;;;5032234;28;20891;-72
2022/03/14 06:42:10;;;;;;;0.90;0.60;;;9.70;99.90;;;;;;5032108;28;20167;-71
2022/03/14 06:44:39;;;;;;;1.57;0.60;;;9.70;99.90;;;;;;5032075;28;21169;-71
2022/03/14 06:47:09;;;;;;;0.70;0.50;;;9.80;99.90;;;;;;5031827;28;20460;-72
2022/03/14 06:49:44;;;;;;;1.10;0.77;;;9.80;99.90;;;;;;5031928;28;20956;-72
2022/03/14 06:52:10;;;;;;;0.80;0.63;;;9.80;99.90;;;;;;5030931;28;20398;-72
2022/03/14 06:54:36;;;;;;;0.70;0.50;;;9.90;99.90;;;;;;5032030;28;20858;-72
2022/03/14 06:57:02;;;;;;;0.70;0.50;;;9.90;99.90;;;;;;5032099;28;20406;-72
2022/03/14 06:59:28;;;;;;;1.10;1.00;;;9.90;99.90;;;;;;5030463;28;20422;-72
2022/03/14 07:01:54;;;;;;;0.80;0.60;;;10.00;99.90;;;;;;5032341;28;20413;-72
2022/03/14 07:04:19;;;;;;;6.10;2.20;;;10.00;99.90;;;;;;5032636;28;20201;-72
2022/03/14 07:06:45;;;;;;;1.33;0.70;;;10.00;99.90;;;;;;5031663;28;20641;-71
2022/03/14 07:09:11;;;;;;;0.70;0.50;;;10.00;99.90;;;;;;5032003;28;20171;-72
2022/03/14 07:11:37;;;;;;;0.80;0.60;;;10.10;99.90;;;;;;5032969;28;20440;-72
2022/03/14 07:14:02;;;;;;;0.70;0.60;;;10.10;99.90;;;;;;5036164;28;20271;-73
2022/03/14 07:16:28;;;;;;;1.07;0.83;;;10.10;99.90;;;;;;5036032;28;20636;-72
2022/03/14 07:18:54;;;;;;;0.70;0.60;;;10.20;99.90;;;;;;5036845;28;20168;-72
2022/03/14 07:21:21;;;;;;;0.80;0.50;;;10.20;99.90;;;;;;5035931;28;20937;-72
2022/03/14 07:23:47;;;;;;;2.67;0.90;;;10.30;99.90;;;;;;5035494;28;20194;-72
2022/03/14 07:26:13;;;;;;;4.23;2.10;;;10.30;99.90;;;;;;5035668;28;20457;-72
2022/03/14 07:28:38;;;;;;;0.70;0.50;;;10.40;99.90;;;;;;5035675;28;20568;-72
2022/03/14 07:31:05;;;;;;;0.80;0.60;;;10.40;99.90;;;;;;5035408;28;20629;-72
2022/03/14 07:33:31;;;;;;;2.60;1.73;;;10.50;99.90;;;;;;5035416;28;20183;-72
2022/03/14 07:35:56;;;;;;;0.70;0.50;;;10.60;99.90;;;;;;5035630;28;20929;-72
2022/03/14 07:38:22;;;;;;;0.83;0.80;;;10.60;99.90;;;;;;5035833;28;20413;-72
2022/03/14 07:40:47;;;;;;;0.80;0.70;;;10.70;99.90;;;;;;5035281;28;20198;-71
2022/03/14 07:43:13;;;;;;;1.00;0.63;;;10.70;99.90;;;;;;5035391;28;20198;-71
2022/03/14 07:45:38;;;;;;;0.73;0.60;;;10.80;99.90;;;;;;5035331;28;20322;-72
2022/03/14 07:48:05;;;;;;;0.73;0.60;;;10.90;99.90;;;;;;5035105;28;20239;-72
2022/03/14 07:50:31;;;;;;;0.70;0.60;;;11.00;99.90;;;;;;5034625;28;20171;-72
2022/03/14 07:52:57;;;;;;;1.23;1.13;;;11.10;99.90;;;;;;5036202;28;20515;-72
2022/03/14 07:55:23;;;;;;;6.10;0.80;;;11.20;99.90;;;;;;5035600;28;20222;-72
2022/03/14 07:57:49;;;;;;;0.70;0.50;;;11.30;99.90;;;;;;5036191;28;20290;-72
2022/03/14 08:00:18;;;;;;;0.70;0.50;;;11.40;99.90;;;;;;5034285;28;20497;-72
2022/03/14 08:02:45;;;;;;;0.90;0.60;;;11.60;99.90;;;;;;5033731;28;20566;-72
2022/03/14 08:05:13;;;;;;;0.70;0.50;;;11.80;99.90;;;;;;5035657;28;20461;-72
2022/03/14 08:07:45;;;;;;;0.70;0.50;;;12.00;99.90;;;;;;5033995;28;20421;-72
2022/03/14 08:10:12;;;;;;;1.10;0.97;;;12.20;99.90;;;;;;5034743;28;20413;-72
2022/03/14 08:12:48;;;;;;;0.70;0.50;;;12.50;99.90;;;;;;5034737;28;20467;-73
2022/03/14 08:15:32;;;;;;;0.80;0.60;;;12.60;99.90;;;;;;5034519;28;20425;-72
2022/03/14 08:18:03;;;;;;;1.30;0.83;;;12.80;99.90;;;;;;5034919;28;20410;-71
2022/03/14 08:20:30;;;;;;;0.87;0.70;;;13.00;99.90;;;;;;5034725;28;20414;-72
2022/03/14 08:22:58;;;;;;;0.80;0.60;;;13.10;99.90;;;;;;5035290;28;20445;-72
2022/03/14 08:25:24;;;;;;;0.80;0.77;;;13.20;99.90;;;;;;5035564;28;20478;-71
2022/03/14 08:27:51;;;;;;;2.07;0.70;;;13.40;99.90;;;;;;5035387;28;20489;-71
2022/03/14 08:30:17;;;;;;;0.70;0.50;;;13.50;99.90;;;;;;5034378;28;20433;-71
2022/03/14 08:32:44;;;;;;;0.70;0.50;;;13.60;99.90;;;;;;5033478;28;20990;-71
2022/03/14 08:35:10;;;;;;;0.70;0.60;;;13.80;99.90;;;;;;5034376;28;20433;-71
2022/03/14 08:37:41;;;;;;;1.03;0.93;;;13.90;99.90;;;;;;5034425;28;20459;-71
2022/03/14 08:40:09;;;;;;;1.20;1.10;;;14.00;99.90;;;;;;5034078;28;20402;-71
2022/03/14 08:42:35;;;;;;;0.70;0.50;;;14.20;99.90;;;;;;5034273;28;20409;-71
2022/03/14 08:45:01;;;;;;;1.10;1.00;;;14.40;99.90;;;;;;5035456;28;20430;-72
2022/03/14 08:47:27;;;;;;;1.57;1.10;;;14.70;99.90;;;;;;5034372;28;20541;-71
2022/03/14 08:49:52;;;;;;;0.80;0.67;;;14.90;99.90;;;;;;5034718;28;20529;-72
2022/03/14 08:52:18;;;;;;;1.60;1.03;;;15.30;99.90;;;;;;5033328;28;20174;-72
2022/03/14 08:54:43;;;;;;;0.80;0.50;;;15.90;99.90;;;;;;5034443;28;20286;-72
2022/03/14 08:57:09;;;;;;;0.80;0.50;;;16.80;99.90;;;;;;5033266;28;20548;-72
2022/03/14 08:59:35;;;;;;;0.93;0.60;;;17.40;99.90;;;;;;5034340;28;20530;-72
2022/03/14 09:02:01;;;;;;;1.10;0.70;;;17.80;99.90;;;;;;5034200;28;20176;-72
2022/03/14 09:04:26;;;;;;;1.70;1.60;;;18.00;99.90;;;;;;5034317;28;20198;-72
2022/03/14 09:06:52;;;;;;;0.93;0.83;;;18.00;99.90;;;;;;5034363;28;20203;-73
2022/03/14 09:09:18;;;;;;;1.47;1.37;;;18.00;99.90;;;;;;5034748;28;20544;-72
2022/03/14 09:11:44;;;;;;;0.90;0.70;;;18.10;99.90;;;;;;5033631;28;20254;-73
2022/03/14 09:14:10;;;;;;;1.30;1.20;;;18.10;99.90;;;;;;5033641;28;20434;-72
2022/03/14 09:16:36;;;;;;;0.80;0.80;;;18.00;99.90;;;;;;5034230;28;20436;-72
2022/03/14 09:19:02;;;;;;;0.80;0.70;;;17.80;99.90;;;;;;5034066;28;20410;-72
2022/03/14 09:21:28;;;;;;;1.03;0.70;;;17.50;99.90;;;;;;5033656;28;20175;-73
2022/03/14 09:23:53;;;;;;;0.80;0.60;;;17.20;99.90;;;;;;5033408;28;21141;-72
2022/03/14 09:26:19;;;;;;;1.10;0.70;;;16.90;99.90;;;;;;5033003;28;20199;-72
2022/03/14 09:28:45;;;;;;;3.47;1.33;;;16.70;99.90;;;;;;5033674;28;20186;-72
2022/03/14 09:31:12;;;;;;;0.80;0.60;;;16.50;99.90;;;;;;5033376;28;20195;-72
2022/03/14 09:33:38;;;;;;;0.87;0.60;;;16.60;99.90;;;;;;5033457;28;20430;-72
2022/03/14 09:36:04;;;;;;;0.90;0.70;;;16.70;99.90;;;;;;5031250;28;20761;-72
2022/03/14 09:38:30;;;;;;;1.23;1.10;;;16.80;99.90;;;;;;5033240;28;20188;-72
2022/03/14 09:40:55;;;;;;;1.40;0.73;;;16.90;99.90;;;;;;5033087;28;20406;-73
2022/03/14 09:43:25;;;;;;;1.10;1.00;;;17.50;99.90;;;;;;5033440;28;20191;-73
2022/03/14 09:45:52;;;;;;;1.80;1.00;;;18.70;99.90;;;;;;5033090;28;20203;-72
2022/03/14 09:48:18;;;;;;;0.90;0.80;;;19.60;99.90;;;;;;5032969;28;20465;-72
2022/03/14 09:50:45;;;;;;;1.70;1.40;;;20.20;98.90;;;;;;5032998;28;20442;-71
2022/03/14 09:53:15;;;;;;;1.43;0.93;;;20.90;97.50;;;;;;5033385;28;20197;-70
2022/03/14 09:55:46;;;;;;;1.40;0.93;;;21.70;92.80;;;;;;5033326;28;20824;-72
2022/03/14 09:58:20;;;;;;;0.90;0.80;;;23.40;86.10;;;;;;5033298;28;20409;-71
2022/03/14 10:00:47;;;;;;;1.13;1.03;;;25.70;77.60;;;;;;5032598;28;20966;-70
2022/03/14 10:03:13;;;;;;;1.00;0.90;;;27.60;62.80;;;;;;5032385;28;20951;-71
2022/03/14 10:05:40;;;;;;;1.73;1.00;;;29.40;56.70;;;;;;5032477;28;20493;-71
2022/03/14 10:08:07;;;;;;;1.47;1.37;;;31.10;52.80;;;;;;5032436;28;20409;-71
2022/03/14 10:10:33;;;;;;;3.00;1.77;;;31.70;48.70;;;;;;5018313;28;20415;-70
2022/03/14 10:12:59;;;;;;;1.50;1.40;;;31.20;45.00;;;;;;5024339;28;20903;-77
2022/03/14 10:15:27;;;;;;;1.40;1.00;;;31.40;44.30;;;;;;5030892;28;20414;-76
2022/03/14 10:17:54;;;;;;;1.30;1.20;;;31.40;43.80;;;;;;5032519;28;20406;-77
2022/03/14 10:20:21;;;;;;;1.07;0.97;;;30.90;42.00;;;;;;5032096;28;20434;-76
2022/03/14 10:22:47;;;;;;;1.10;0.90;;;30.10;42.10;;;;;;5030877;28;20422;-76
2022/03/14 10:25:15;;;;;;;1.47;1.10;;;29.70;42.90;;;;;;5030593;28;20473;-76
2022/03/14 10:27:46;;;;;;;1.30;0.97;;;30.00;43.10;;;;;;5030904;28;20942;-77
2022/03/14 10:30:31;;;;;;;1.57;1.40;;;30.00;42.90;;;;;;5031989;28;20399;-76
2022/03/14 10:33:07;;;;;;;1.10;1.00;;;29.20;41.60;;;;;;5031966;28;20407;-76
2022/03/14 10:35:35;;;;;;;1.20;0.80;;;28.20;41.70;;;;;;5032151;28;20467;-76
2022/03/14 10:38:04;;;;;;;1.33;1.20;;;27.70;43.60;;;;;;5031622;28;20422;-76
2022/03/14 10:40:33;;;;;;;1.20;1.10;;;27.50;43.60;;;;;;5030596;28;20476;-76
2022/03/14 10:42:59;;;;;;;1.73;1.10;;;27.50;44.20;;;;;;5031825;28;20398;-76
2022/03/14 10:45:25;;;;;;;1.13;1.03;;;28.10;44.40;;;;;;5030495;28;20484;-76
2022/03/14 10:47:57;;;;;;;1.00;0.73;;;27.90;42.60;;;;;;5031422;28;20775;-76
2022/03/14 10:50:36;;;;;;;1.20;1.00;;;26.90;42.80;;;;;;5030131;28;20201;-76
2022/03/14 10:53:03;;;;;;;1.20;0.87;;;25.80;43.60;;;;;;5031669;28;20405;-76
2022/03/14 10:55:38;;;;;;;1.00;0.70;;;24.70;44.80;;;;;;5030519;28;20434;-76
2022/03/14 10:58:13;;;;;;;0.90;0.80;;;23.80;46.10;;;;;;5031965;28;20433;-76
2022/03/14 11:00:49;;;;;;;0.90;0.70;;;22.90;47.10;;;;;;5031252;28;20426;-75
2022/03/14 11:03:27;;;;;;;1.00;0.90;;;22.10;48.20;;;;;;5031687;28;20449;-76
2022/03/14 11:05:57;;;;;;;1.37;1.00;;;21.40;49.70;;;;;;5030278;28;20464;-76
2022/03/14 11:08:32;;;;;;;0.90;0.80;;;20.70;50.40;;;;;;5031499;28;20411;-76
2022/03/14 11:11:00;;;;;;;1.00;0.63;;;20.20;51.90;;;;;;5030142;28;20413;-76
2022/03/14 11:13:26;;;;;;;1.00;0.70;;;19.80;52.60;;;;;;5031330;28;20446;-76
2022/03/14 11:15:51;;;;;;;1.30;0.80;;;19.30;53.10;;;;;;5031516;28;20456;-76
2022/03/14 11:18:18;;;;;;;1.27;1.17;;;18.90;54.10;;;;;;5031617;28;20414;-76
2022/03/14 11:20:44;;;;;;;1.13;0.80;;;18.60;54.90;;;;;;5031076;28;20794;-76
2022/03/14 11:23:12;;;;;;;0.80;0.60;;;18.20;55.50;;;;;;5031287;28;20436;-76
2022/03/14 11:25:38;;;;;;;0.80;0.60;;;17.90;56.30;;;;;;5031391;28;20524;-76
2022/03/14 11:28:04;;;;;;;0.80;0.50;;;17.60;57.00;;;;;;5030161;28;20419;-76
2022/03/14 11:30:34;;;;;;;0.80;0.70;;;17.40;57.80;;;;;;5030884;28;20402;-76
2022/03/14 11:33:01;;;;;;;0.80;0.50;;;17.10;58.00;;;;;;5031380;28;20762;-76
2022/03/14 11:35:27;;;;;;;0.80;0.70;;;16.90;59.70;;;;;;5031168;28;20414;-76
2022/03/14 11:37:55;;;;;;;1.03;0.93;;;16.70;59.80;;;;;;5031151;28;20406;-76
2022/03/14 11:40:22;;;;;;;0.90;0.67;;;16.50;61.30;;;;;;5031019;28;20411;-76
2022/03/14 11:42:48;;;;;;;0.83;0.60;;;16.40;63.30;;;;;;5031270;28;20418;-76
2022/03/14 11:45:14;;;;;;;1.43;1.33;;;16.20;64.60;;;;;;5031105;28;20926;-76
2022/03/14 11:47:40;;;;;;;0.80;0.50;;;16.20;65.90;;;;;;5029942;28;20171;-76
2022/03/14 11:50:08;;;;;;;0.80;0.80;;;16.00;67.70;;;;;;5029639;28;21040;-76
2022/03/14 11:52:43;;;;;;;1.17;0.97;;;16.00;68.30;;;;;;5031141;28;20406;-76
2022/03/14 11:55:21;;;;;;;0.70;0.50;;;15.90;69.20;;;;;;5029491;28;20465;-76
2022/03/14 11:57:47;;;;;;;0.80;0.50;;;15.80;70.90;;;;;;5029944;28;20774;-76
2022/03/14 12:00:22;;;;;;;0.80;0.50;;;15.70;70.70;;;;;;5034451;28;20412;-70
2022/03/14 12:02:56;;;;;;;0.80;0.50;;;15.60;70.70;;;;;;5033660;28;20418;-71
2022/03/14 12:05:24;;;;;;;0.73;0.50;;;15.50;71.00;;;;;;5034680;28;20507;-71
2022/03/14 12:07:51;;;;;;;0.80;0.50;;;15.50;71.90;;;;;;5034986;28;20422;-72
2022/03/14 12:10:27;;;;;;;0.80;0.50;;;15.50;73.30;;;;;;5034396;28;20848;-71
2022/03/14 12:12:53;;;;;;;0.80;0.60;;;15.60;75.60;;;;;;5034660;28;20414;-71
2022/03/14 12:15:45;;;;;;;0.80;0.60;;;15.70;76.20;;;;;;5034648;28;20413;-71
2022/03/14 12:18:26;;;;;;;0.80;0.50;;;16.00;76.40;;;;;;5034635;28;20429;-72
2022/03/14 12:20:59;;;;;;;0.70;0.50;;;16.30;77.30;;;;;;5013329;28;20423;-72
2022/03/14 12:23:28;;;;;;;1.00;0.80;;;16.60;76.30;;;;;;5014869;28;20900;-71
2022/03/14 12:25:54;;;;;;;1.00;0.80;;;16.70;74.90;;;;;;5014576;28;20517;-71
2022/03/14 12:28:38;;;;;;;0.73;0.50;;;16.80;74.00;;;;;;5013537;28;20447;-71
2022/03/14 12:31:03;;;;;;;1.07;0.70;;;16.80;71.90;;;;;;5017795;28;20414;-71
2022/03/14 12:33:34;;;;;;;0.80;0.60;;;16.90;72.60;;;;;;5034290;28;20842;-71
2022/03/14 12:36:24;;;;;;;1.00;0.83;;;16.90;73.80;;;;;;5034260;28;20206;-71
2022/03/14 12:39:12;;;;;;;1.00;0.70;;;17.00;72.80;;;;;;5034227;28;20425;-71
2022/03/14 12:41:39;;;;;;;1.10;1.00;;;16.90;71.60;;;;;;5033980;28;20417;-71
2022/03/14 12:44:17;;;;;;;0.87;0.67;;;16.90;72.40;;;;;;5033858;28;20587;-72
2022/03/14 12:46:45;;;;;;;0.80;0.50;;;16.90;74.80;;;;;;5034085;28;20453;-71
2022/03/14 12:49:10;;;;;;;0.90;0.90;;;16.90;78.40;;;;;;5033947;28;20410;-71